Kodiak, AK (99619)

2:58 PM AKST on December 03, 2016 (GMT -0900)
| | Change Station

Elev -9999 ft 0.00 °N, 0.00 °E | Updated

Partly Cloudy
Partly Cloudy
17 °F
Feels Like -2 °F
N
31
Wind Variable Wind from WNW
Gusts 39 mph

Today
High -- | Low -- °F
--% Chance of Precip.
Yesterday
High -- | Low -- °F
Precip. -- in
Pressure 29.75 in
Visibility 10.0 miles
Clouds Few 3000 ft
Scattered Clouds 4500 ft
Windchill -2 °F
Dew Point 8 °F
Humidity 68%
Rainfall --
Snow Depth Not available.
9:32 AM 4:26 PM
Waxing Crescent, 18% visible
METAR PADQ 032353Z 29037G59KT 10SM FEW030 SCT045 M08/M17 A2974 RMK AO2 PK WND 29062/2341 SLP073 T10781172 11067 21083 58006 $
Pressure 29.75 in
Visibility 10.0 miles
Clouds Few 3000 ft
Scattered Clouds 4500 ft
Windchill -2 °F
Dew Point 8 °F
Humidity 68%
Rainfall --
Snow Depth Not available.
9:32 AM 4:26 PM
Waxing Crescent, 18% visible
METAR PADQ 032353Z 29037G59KT 10SM FEW030 SCT045 M08/M17 A2974 RMK AO2 PK WND 29062/2341 SLP073 T10781172 11067 21083 58006 $

10-Day Weather Forecast

Almanac

Astronomy

Dec. 03, 2016 Rise Set
Actual Time
Civil Twilight
Nautical Twilight
Astronomical Twilight
Moon
Length of Visible Light
Length of Day
Tomorrow will be .
, % of the Moon is Illuminated

Today's Extremes

State Highs State Lows

Community

WunderPhotos

Upload Photos

1,955,536 photos uploaded!

WunderBlog® & News

Nearby

Air Quality

  Air Quality AQ Index Pollutant
Not available.

Snow Depth

Station Depth Elevation

Earthquake Activity

City Distance Mag. Time & Date
Minimum magnitude displayed is 2.5.

Coastal Water Temperatures

Place Temperature

Stations

Nearby Weather Stations

Station Location Temp. Windchill Dew Point Humidity Wind Precip. Elev Updated Type
                   

Watches & Warnings

There are currently no watches in effect.